Terminal Aerodrome Forecast
Issued by NWS

Home | Current Version | Previous Version | Text Only | Print | Product List | Glossary On
Versions: 1 2 3 4 5 6 7 8 9 10 11 12 13 14 15 16 17 18 19 20 21 22 23 24 25 26 27 28 29
000
FTUS41 KCTP 301444 AAA
TAFLNS
TAF AMD
KLNS 301444Z 3015/3112 00000KT P6SM SCT090
     FM302000 22006KT P6SM VCSH SCT050
     FM302200 24004KT P6SM SCT050
     FM310400 00000KT 4SM BR SCT150=

USA.gov is the U.S. government's official web portal to all federal, state and local government web resources and services.